Portada
METAR-TAF:

METAR-TAF

Aeroports :

Cheraw, Carolina del Sud, Estats Units d'Amèrica

latitud: 34-42-46N, longitud: 079-57-25W, altitud: 73 m

Observació

L'informe es va fer fa 28 minuts, a les 12:35 UTC
Vent 5 kt del Sud-Oest
Temperatura 23°C
Humitat 78%
Pressió 1019 hPa
Visibilitat: 16.1 km
Cel clar

METAR: KCQW 191235Z AUTO 22005KT 10SM CLR 23/19 A3008 RMK AO2

Hora: 09:03 (13:03 UTC)


TAF: manca

Observacions i pronòstics meteorològics de més de 4000 aeroports (METAR i TAF).

Les estacions disponibles són els punts grocs i vermells al mapa.

Posi el ratolí al punt desitjat per veure el nom de l'estació.

Feu clic per veure les observacions i els pronòstics meteorològics.

Per canviar el mapa: feu clic els botons verds amb una creu de color negre per apropar; al botó verd amb un guió per allunyar la imatge; o en les fletxes verdes per a mapes adjacents.


METAR-TAF: